Time;durP1;ratioP1;P1;durP2;ratioP2;P2;SDS_P1;SDS_P2;PMS_P1;PMS_P2;Temp;Humidity;BMP_temperature;BMP_pressure;BME280_temperature;BME280_humidity;BME280_pressure;Samples;Min_cycle;Max_cycle;Signal;HPM_P1;HPM_P2
2021/07/04 00:08:04;;;;;;;10.93;9.93;;;18.20;98.30;;;;;;5036182;23;20434;-84
2021/07/04 00:10:13;;;;;;;10.37;9.27;;;18.20;98.30;;;;;;5074605;23;20487;-84
2021/07/04 00:12:21;;;;;;;10.57;9.67;;;18.20;98.30;;;;;;5074614;23;20458;-83
2021/07/04 00:14:26;;;;;;;10.90;9.87;;;18.20;98.30;;;;;;5074612;23;20451;-83
2021/07/04 00:16:30;;;;;;;9.87;8.87;;;18.30;98.30;;;;;;5074579;23;20440;-83
2021/07/04 00:18:35;;;;;;;10.60;8.93;;;18.30;98.30;;;;;;5092370;22;20408;-83
2021/07/04 00:20:40;;;;;;;10.03;8.77;;;18.30;98.30;;;;;;5224603;22;20391;-82
2021/07/04 00:22:44;;;;;;;8.93;8.13;;;18.30;98.30;;;;;;5216223;22;20403;-83
2021/07/04 00:24:49;;;;;;;9.90;9.10;;;18.30;98.30;;;;;;5215811;22;20485;-83
2021/07/04 00:26:52;;;;;;;14.10;10.70;;;18.30;98.30;;;;;;5223656;22;20443;-86
2021/07/04 00:28:55;;;;;;;9.73;8.73;;;18.20;98.30;;;;;;5224498;22;20444;-86
2021/07/04 00:30:59;;;;;;;21.73;19.50;;;18.30;98.30;;;;;;5222416;22;20618;-86
2021/07/04 00:33:07;;;;;;;38.27;32.60;;;18.30;98.30;;;;;;5204348;22;20414;-84
2021/07/04 00:35:11;;;;;;;19.53;16.60;;;18.30;98.30;;;;;;5200913;22;20458;-84
2021/07/04 00:37:14;;;;;;;15.20;13.60;;;18.20;98.30;;;;;;5201913;22;20423;-85
2021/07/04 00:39:19;;;;;;;10.10;9.10;;;18.20;98.30;;;;;;5200987;22;20419;-87
2021/07/04 00:41:24;;;;;;;11.80;10.60;;;18.20;98.30;;;;;;5201114;22;20411;-84
2021/07/04 00:43:28;;;;;;;10.90;9.90;;;18.20;98.30;;;;;;5200287;22;20887;-85
2021/07/04 00:45:31;;;;;;;11.13;10.20;;;18.20;98.30;;;;;;5200896;22;20457;-84
2021/07/04 00:47:34;;;;;;;12.53;11.43;;;18.10;98.30;;;;;;5201364;22;20426;-84
2021/07/04 00:49:38;;;;;;;12.37;11.27;;;17.80;98.30;;;;;;5205116;22;20446;-83
2021/07/04 00:51:44;;;;;;;13.20;11.57;;;17.60;98.30;;;;;;5195027;22;20461;-84
2021/07/04 00:53:47;;;;;;;16.83;11.57;;;17.50;98.30;;;;;;5202692;22;20438;-83
2021/07/04 00:55:51;;;;;;;11.97;10.87;;;17.40;98.30;;;;;;5202126;22;20443;-84
2021/07/04 00:57:55;;;;;;;12.57;11.37;;;17.40;98.30;;;;;;5202889;22;20418;-84
2021/07/04 01:00:04;;;;;;;11.70;10.60;;;17.30;98.30;;;;;;5202519;22;20450;-84
2021/07/04 01:02:11;;;;;;;12.33;11.13;;;17.30;98.30;;;;;;5202775;22;20414;-84
2021/07/04 01:04:16;;;;;;;11.80;10.60;;;17.20;98.30;;;;;;5202445;22;20422;-84
2021/07/04 01:06:21;;;;;;;12.27;11.00;;;17.10;98.30;;;;;;5202149;22;20442;-84
2021/07/04 01:08:27;;;;;;;12.33;11.17;;;17.10;98.30;;;;;;5193054;22;20411;-84
2021/07/04 01:10:32;;;;;;;19.73;17.83;;;17.20;98.30;;;;;;5201422;22;20429;-85
2021/07/04 01:12:42;;;;;;;40.33;33.17;;;17.40;98.30;;;;;;5200812;22;20435;-84
2021/07/04 01:15:06;;;;;;;15.53;13.97;;;17.50;98.30;;;;;;5201404;22;20404;-86
2021/07/04 01:17:40;;;;;;;12.40;11.30;;;17.30;98.30;;;;;;5192424;22;20427;-85
2021/07/04 01:19:55;;;;;;;12.20;11.10;;;17.20;98.30;;;;;;5202577;22;20426;-84
2021/07/04 01:22:35;;;;;;;;;;;;;;;;;;;;;
2021/07/04 01:25:07;;;;;;;12.20;11.00;;;17.40;98.30;;;;;;5201716;22;20430;-84
2021/07/04 01:29:31;;;;;;;11.33;10.13;;;17.40;98.30;;;;;;5191386;22;20508;-84
2021/07/04 01:31:43;;;;;;;11.80;10.70;;;17.50;98.30;;;;;;5200988;22;20430;-84
2021/07/04 01:33:57;;;;;;;11.10;10.03;;;17.50;98.30;;;;;;5201758;22;20415;-85
2021/07/04 01:36:06;;;;;;;14.43;10.27;;;17.50;98.30;;;;;;5201400;22;20449;-85
2021/07/04 01:41:19;;;;;;;13.00;11.80;;;17.60;98.30;;;;;;5201547;22;20461;-84
2021/07/04 01:43:56;;;;;;;;;;;;;;;;;;;;;
2021/07/04 01:46:49;;;;;;;13.27;12.00;;;17.40;98.30;;;;;;5189615;22;20473;-84
2021/07/04 01:49:50;;;;;;;12.67;11.30;;;17.40;98.30;;;;;;5167908;22;21265;-84
2021/07/04 01:54:38;;;;;;;13.63;12.43;;;17.30;98.30;;;;;;5200544;22;20951;-85
2021/07/04 01:56:44;;;;;;;13.80;11.90;;;17.20;98.30;;;;;;5192471;22;20955;-85
2021/07/04 01:58:50;;;;;;;12.40;11.40;;;17.10;98.30;;;;;;5201242;22;20410;-84
2021/07/04 02:01:00;;;;;;;12.67;11.47;;;17.10;98.30;;;;;;5201328;22;20414;-85
2021/07/04 02:03:05;;;;;;;12.67;11.57;;;16.90;98.30;;;;;;5201478;22;20434;-84
2021/07/04 02:05:09;;;;;;;11.83;10.77;;;16.90;98.30;;;;;;5200488;22;20908;-84
2021/07/04 02:07:21;;;;;;;11.70;10.70;;;16.90;98.30;;;;;;5200866;22;20406;-84
2021/07/04 02:09:27;;;;;;;11.13;10.13;;;16.90;98.30;;;;;;5200225;22;20482;-85
2021/07/04 02:11:34;;;;;;;10.23;9.33;;;17.10;98.30;;;;;;5200590;22;20922;-85
2021/07/04 02:13:40;;;;;;;12.80;11.07;;;16.90;98.30;;;;;;5200334;22;20419;-85
2021/07/04 02:15:45;;;;;;;12.53;11.27;;;16.90;98.30;;;;;;5200346;22;20776;-84
2021/07/04 02:17:50;;;;;;;12.17;10.97;;;16.80;98.30;;;;;;5200381;22;20403;-84
2021/07/04 02:22:42;;;;;;;11.07;10.07;;;16.40;98.30;;;;;;5113473;23;20421;-85
2021/07/04 02:24:45;;;;;;;9.93;9.13;;;16.40;98.30;;;;;;5178900;22;20425;-84
2021/07/04 02:26:52;;;;;;;10.80;9.80;;;16.40;98.30;;;;;;5200579;22;20442;-85
2021/07/04 02:29:27;;;;;;;9.83;8.93;;;16.40;98.30;;;;;;5200783;22;20401;-85
2021/07/04 02:32:25;;;;;;;9.97;9.07;;;16.40;98.30;;;;;;5056059;23;20434;-85
2021/07/04 02:35:14;;;;;;;10.83;9.83;;;16.30;98.30;;;;;;5063644;23;20420;-85
2021/07/04 02:37:41;;;;;;;;;;;;;;;;;;;;;
2021/07/04 02:39:52;;;;;;;9.20;8.40;;;16.10;98.30;;;;;;5073342;23;20728;-85
2021/07/04 02:42:04;;;;;;;10.40;9.40;;;16.10;98.30;;;;;;5073433;23;21171;-85
2021/07/04 02:45:00;;;;;;;;;;;;;;;;;;;;;
2021/07/04 02:47:34;;;;;;;9.60;8.70;;;16.10;98.30;;;;;;4991624;23;20462;-85
2021/07/04 02:50:03;;;;;;;9.03;8.20;;;16.20;98.30;;;;;;5129038;22;20427;-84
2021/07/04 02:59:51;;;;;;;9.50;8.70;;;16.30;98.30;;;;;;5094235;23;20545;-84
2021/07/04 03:02:54;;;;;;;;;;;;;;;;;;;;;
2021/07/04 03:05:38;;;;;;;10.80;7.90;;;16.30;98.30;;;;;;5112750;22;20431;-85
2021/07/04 03:07:58;;;;;;;7.93;7.23;;;16.30;98.30;;;;;;5188147;22;20423;-84
2021/07/04 03:10:14;;;;;;;7.93;7.23;;;16.30;98.30;;;;;;5201017;22;20412;-84
2021/07/04 03:12:43;;;;;;;8.10;7.30;;;16.30;98.30;;;;;;5200684;22;20426;-86
2021/07/04 03:15:00;;;;;;;8.00;7.20;;;16.50;98.30;;;;;;5200648;22;20509;-86
2021/07/04 03:17:11;;;;;;;7.67;6.83;;;16.50;98.30;;;;;;5200444;22;20473;-85
2021/07/04 03:19:18;;;;;;;9.60;7.47;;;16.60;98.30;;;;;;5200447;22;20399;-85
2021/07/04 03:24:03;;;;;;;7.40;6.70;;;16.80;98.30;;;;;;5192276;22;20430;-85
2021/07/04 13:12:45;;;;;;;9.60;6.70;;;31.10;76.90;;;;;;5177584;22;20744;-86
2021/07/04 14:45:00;;;;;;;7.53;6.93;;;25.90;86.40;;;;;;5165349;23;20450;-84
2021/07/04 16:03:57;;;;;;;6.97;6.33;;;26.70;83.90;;;;;;4902456;23;20432;-75
2021/07/04 16:05:59;;;;;;;7.00;6.40;;;26.80;83.70;;;;;;4968036;23;20533;-72
2021/07/04 16:08:03;;;;;;;6.70;6.10;;;26.10;84.10;;;;;;5008610;23;20778;-72
2021/07/04 16:10:07;;;;;;;7.03;6.43;;;26.20;84.50;;;;;;5039932;23;20431;-72
2021/07/04 16:12:10;;;;;;;6.90;6.30;;;26.30;84.40;;;;;;5040778;23;20468;-72
2021/07/04 16:14:16;;;;;;;6.87;6.17;;;26.20;84.50;;;;;;5040450;23;20439;-72
2021/07/04 16:16:19;;;;;;;7.07;6.47;;;26.20;85.40;;;;;;5039948;23;20449;-72
2021/07/04 16:18:24;;;;;;;7.67;6.97;;;25.90;85.60;;;;;;5170953;23;20416;-72
2021/07/04 16:20:30;;;;;;;7.63;6.93;;;25.90;84.90;;;;;;5165654;23;20482;-73
2021/07/04 16:22:34;;;;;;;7.33;6.63;;;25.70;84.90;;;;;;5165461;23;20415;-72
2021/07/04 16:24:39;;;;;;;7.03;6.43;;;25.80;85.70;;;;;;5174430;23;20447;-72
2021/07/04 16:26:42;;;;;;;7.10;6.40;;;25.90;85.90;;;;;;5172683;22;20538;-73
2021/07/04 16:28:45;;;;;;;6.10;5.60;;;25.90;85.20;;;;;;5165886;23;20458;-72
2021/07/04 16:30:48;;;;;;;6.97;6.30;;;25.80;85.30;;;;;;5165972;23;20427;-72
2021/07/04 16:32:52;;;;;;;6.50;5.90;;;25.60;85.50;;;;;;5166272;23;20427;-72
2021/07/04 16:34:54;;;;;;;5.97;5.47;;;25.70;85.70;;;;;;5165141;23;20482;-72
2021/07/04 16:36:59;;;;;;;6.70;6.07;;;25.90;85.50;;;;;;5164612;22;20444;-72
2021/07/04 16:39:04;;;;;;;6.60;5.93;;;25.90;85.80;;;;;;5165685;23;20445;-72
2021/07/04 16:41:07;;;;;;;6.63;5.83;;;25.90;84.90;;;;;;5165132;23;20478;-72
2021/07/04 16:43:10;;;;;;;6.57;5.80;;;26.00;85.40;;;;;;5165318;23;20427;-72
2021/07/04 16:45:15;;;;;;;6.47;5.97;;;26.00;85.30;;;;;;5164965;23;20431;-72
2021/07/04 16:47:18;;;;;;;7.87;7.17;;;26.00;85.30;;;;;;5164128;22;20477;-73
2021/07/04 16:49:21;;;;;;;7.23;6.60;;;25.90;85.60;;;;;;5164892;23;20436;-72
2021/07/04 16:51:23;;;;;;;8.50;7.60;;;26.00;85.50;;;;;;5165703;23;20424;-72
2021/07/04 16:53:28;;;;;;;8.13;7.40;;;25.90;85.40;;;;;;5166289;23;20913;-72
2021/07/04 16:55:32;;;;;;;15.90;14.30;;;25.90;86.00;;;;;;5167909;22;20424;-78
2021/07/04 16:57:34;;;;;;;7.30;6.60;;;26.20;85.80;;;;;;5174006;23;20461;-76
2021/07/04 16:59:38;;;;;;;7.07;6.47;;;26.10;85.20;;;;;;5165249;23;20438;-77
2021/07/04 17:01:41;;;;;;;7.03;6.27;;;26.10;85.10;;;;;;5166789;23;20511;-79
2021/07/04 17:03:44;;;;;;;6.70;6.00;;;26.10;84.80;;;;;;5166606;23;20427;-79
2021/07/04 17:05:47;;;;;;;6.50;5.90;;;26.10;85.20;;;;;;5164827;22;20474;-77
2021/07/04 17:07:50;;;;;;;7.93;6.30;;;26.00;85.60;;;;;;5165758;23;20452;-77
2021/07/04 17:09:54;;;;;;;6.43;5.93;;;25.90;85.90;;;;;;5165164;23;20813;-77
2021/07/04 17:11:57;;;;;;;6.20;5.60;;;25.90;85.30;;;;;;5165863;23;20436;-77
2021/07/04 17:14:01;;;;;;;6.10;5.60;;;25.80;85.80;;;;;;5165697;23;20637;-72
2021/07/04 17:16:04;;;;;;;9.10;8.13;;;25.90;85.80;;;;;;5165162;22;20444;-72
2021/07/04 17:18:08;;;;;;;6.60;6.00;;;26.00;85.90;;;;;;5164507;23;20503;-72
2021/07/04 17:20:13;;;;;;;7.27;6.63;;;25.90;84.90;;;;;;5164905;23;20432;-72
2021/07/04 17:22:16;;;;;;;8.40;7.67;;;25.70;84.60;;;;;;5165297;23;20423;-72
2021/07/04 17:24:19;;;;;;;6.63;6.13;;;25.70;84.90;;;;;;5165088;23;20987;-79
2021/07/04 17:26:24;;;;;;;7.07;6.37;;;25.80;85.10;;;;;;5164846;22;20945;-72
2021/07/04 17:28:27;;;;;;;5.67;5.17;;;25.80;84.90;;;;;;5165111;23;20953;-72
2021/07/04 17:30:31;;;;;;;6.57;5.70;;;25.70;84.90;;;;;;5163550;23;20838;-72
2021/07/04 17:32:34;;;;;;;7.83;5.30;;;25.50;85.20;;;;;;5164343;23;20424;-72
2021/07/04 17:34:37;;;;;;;5.90;5.33;;;25.50;85.70;;;;;;5165461;23;20931;-72
2021/07/04 17:36:40;;;;;;;5.87;5.37;;;25.50;85.70;;;;;;5164750;22;20955;-72
2021/07/04 17:38:46;;;;;;;6.50;5.20;;;25.40;86.10;;;;;;5164643;23;20768;-72
2021/07/04 17:40:49;;;;;;;5.17;4.77;;;25.30;86.70;;;;;;5165185;23;20412;-72
2021/07/04 17:42:54;;;;;;;6.43;5.83;;;25.20;86.60;;;;;;5164793;23;20913;-72
2021/07/04 17:44:57;;;;;;;6.00;5.50;;;25.30;86.60;;;;;;5165327;23;20489;-72
2021/07/04 17:47:00;;;;;;;6.00;5.20;;;25.30;86.70;;;;;;5165102;22;20447;-72
2021/07/04 17:49:04;;;;;;;6.60;6.00;;;25.30;86.50;;;;;;5162740;23;20794;-72
2021/07/04 17:51:07;;;;;;;6.80;6.10;;;25.30;86.90;;;;;;5165417;23;20483;-72
2021/07/04 17:53:11;;;;;;;5.80;5.30;;;25.30;87.20;;;;;;5164729;23;20436;-72
2021/07/04 17:55:15;;;;;;;5.30;4.90;;;25.30;87.30;;;;;;5164305;23;20432;-72
2021/07/04 17:57:18;;;;;;;10.70;5.57;;;25.10;87.80;;;;;;5163791;22;20550;-72
2021/07/04 17:59:22;;;;;;;5.13;4.63;;;25.00;87.80;;;;;;5163800;23;20428;-72
2021/07/04 18:01:28;;;;;;;5.90;5.40;;;24.90;88.40;;;;;;5164536;23;20428;-72
2021/07/04 18:03:34;;;;;;;5.03;4.63;;;24.80;89.20;;;;;;5164369;23;20741;-72
2021/07/04 18:05:37;;;;;;;6.70;5.90;;;24.80;89.10;;;;;;5164115;22;20443;-72
2021/07/04 18:07:41;;;;;;;7.30;6.17;;;24.60;89.80;;;;;;5164418;23;20490;-72
2021/07/04 18:09:45;;;;;;;5.80;5.30;;;24.70;90.40;;;;;;5164110;23;20487;-72
2021/07/04 18:11:48;;;;;;;5.03;4.57;;;24.50;91.40;;;;;;5163971;23;20438;-72
2021/07/04 18:13:51;;;;;;;5.30;4.90;;;24.40;92.00;;;;;;5163854;23;20424;-72
2021/07/04 18:15:55;;;;;;;7.43;5.10;;;24.40;92.50;;;;;;5164347;22;20444;-72
2021/07/04 18:17:58;;;;;;;6.70;6.00;;;24.30;92.90;;;;;;5163554;23;20959;-72
2021/07/04 18:20:01;;;;;;;6.23;5.20;;;24.40;92.90;;;;;;5164218;23;20459;-72
2021/07/04 18:22:05;;;;;;;5.63;5.23;;;24.40;93.10;;;;;;5164552;23;20510;-72
2021/07/04 18:24:08;;;;;;;7.63;6.87;;;24.30;93.60;;;;;;5163996;23;20424;-73
2021/07/04 18:26:12;;;;;;;12.00;10.80;;;24.30;93.60;;;;;;5172693;22;20471;-72
2021/07/04 18:28:15;;;;;;;6.30;5.70;;;24.30;93.90;;;;;;5163669;23;20443;-73
2021/07/04 18:30:20;;;;;;;6.10;5.50;;;24.20;94.30;;;;;;5173446;23;20761;-72
2021/07/04 18:32:26;;;;;;;6.13;5.63;;;24.30;94.20;;;;;;5167792;23;20474;-72
2021/07/04 18:34:29;;;;;;;6.63;6.03;;;24.30;94.20;;;;;;5168476;23;20408;-72
2021/07/04 18:36:34;;;;;;;5.70;5.20;;;24.20;94.20;;;;;;5165584;22;20451;-72
2021/07/04 18:38:37;;;;;;;6.30;5.80;;;24.20;94.10;;;;;;5163780;23;20952;-72
2021/07/04 18:40:40;;;;;;;7.73;5.67;;;24.20;93.90;;;;;;5164538;23;20430;-72
2021/07/04 18:42:43;;;;;;;5.70;5.00;;;24.20;93.20;;;;;;5164541;23;20442;-72
2021/07/04 18:44:48;;;;;;;8.20;7.00;;;24.00;93.00;;;;;;5164480;23;20578;-72
2021/07/04 18:46:51;;;;;;;6.43;5.83;;;24.00;93.00;;;;;;5163756;22;20456;-72
2021/07/04 18:48:55;;;;;;;5.80;5.30;;;23.90;92.80;;;;;;5163674;23;20444;-72
2021/07/04 18:50:58;;;;;;;5.90;5.30;;;23.80;92.90;;;;;;5163542;23;20482;-72
2021/07/04 18:53:01;;;;;;;5.60;5.10;;;23.90;93.10;;;;;;5164403;23;20800;-71
2021/07/04 18:55:05;;;;;;;5.67;5.17;;;23.90;93.10;;;;;;5165085;23;20937;-72
2021/07/04 18:59:24;;;;;;;6.47;5.87;;;23.80;93.40;;;;;;5163199;23;20419;-72
2021/07/04 19:01:27;;;;;;;6.23;5.70;;;23.80;93.60;;;;;;5163600;23;20428;-71
2021/07/04 19:03:30;;;;;;;5.93;5.33;;;23.80;93.60;;;;;;5164614;23;20427;-71
2021/07/04 19:05:36;;;;;;;5.30;4.80;;;23.80;94.00;;;;;;5171210;22;20488;-71
2021/07/04 19:07:44;;;;;;;4.93;4.53;;;23.80;94.10;;;;;;5162567;23;20408;-71
2021/07/04 19:09:47;;;;;;;5.00;4.50;;;23.70;94.40;;;;;;5162790;23;20434;-72
2021/07/04 19:11:50;;;;;;;15.47;13.50;;;23.60;94.80;;;;;;5171685;23;20424;-71
2021/07/04 19:13:53;;;;;;;7.53;6.83;;;23.60;94.90;;;;;;5163464;23;20435;-72
2021/07/04 19:15:56;;;;;;;8.93;8.10;;;23.60;94.80;;;;;;5163753;22;20462;-71
2021/07/04 19:17:59;;;;;;;11.43;10.30;;;23.60;94.70;;;;;;5163690;23;20967;-72
2021/07/04 19:20:02;;;;;;;5.47;4.97;;;23.40;95.20;;;;;;5163789;23;21257;-71
2021/07/04 19:22:06;;;;;;;5.73;5.13;;;23.40;95.20;;;;;;5164011;23;20987;-72
2021/07/04 19:24:09;;;;;;;5.83;4.60;;;23.30;95.10;;;;;;5163776;23;20434;-72
2021/07/04 19:26:12;;;;;;;5.20;4.73;;;23.30;95.10;;;;;;5164354;22;20510;-71
2021/07/04 19:28:16;;;;;;;4.87;4.47;;;23.30;95.00;;;;;;5163438;23;20428;-71
2021/07/04 19:30:21;;;;;;;4.77;4.37;;;23.30;95.20;;;;;;5163806;23;20448;-71
2021/07/04 19:32:24;;;;;;;5.13;4.63;;;23.30;95.00;;;;;;5164351;23;20423;-72
2021/07/04 19:34:28;;;;;;;5.40;4.20;;;23.30;95.30;;;;;;5164151;23;20414;-71
2021/07/04 19:36:43;;;;;;;4.10;3.77;;;23.30;95.10;;;;;;5164969;22;20526;-72
2021/07/04 19:38:47;;;;;;;4.70;4.17;;;23.30;95.60;;;;;;5164159;23;21126;-71
2021/07/04 19:40:50;;;;;;;4.60;4.20;;;23.20;95.60;;;;;;5165385;23;20430;-71
2021/07/04 19:42:54;;;;;;;4.50;4.00;;;23.20;95.20;;;;;;5165800;23;20489;-72
2021/07/04 19:44:57;;;;;;;4.47;4.07;;;23.10;95.40;;;;;;5165777;23;20428;-72
2021/07/04 19:47:02;;;;;;;6.50;5.83;;;23.10;94.80;;;;;;5165210;22;20447;-71
2021/07/04 19:49:05;;;;;;;24.40;20.37;;;23.00;95.20;;;;;;5165192;23;21011;-71
2021/07/04 19:51:08;;;;;;;5.80;4.83;;;23.00;94.20;;;;;;5165758;23;20438;-71
2021/07/04 20:28:38;;;;;;;4.50;4.10;;;22.30;96.70;;;;;;5183610;22;20803;-83
2021/07/04 20:30:56;;;;;;;4.77;4.27;;;22.20;96.60;;;;;;5200616;22;20426;-83
2021/07/04 20:33:31;;;;;;;4.73;4.33;;;22.00;97.30;;;;;;5189843;22;20426;-83
2021/07/04 22:33:17;;;;;;;5.13;4.63;;;21.60;98.30;;;;;;5165677;22;21107;31
2021/07/04 22:39:06;;;;;;;7.77;5.00;;;21.60;98.30;;;;;;5105914;23;20411;-83
2021/07/04 22:41:22;;;;;;;5.33;4.93;;;21.60;98.30;;;;;;5106122;23;20751;-82
2021/07/04 23:53:00;;;;;;;6.30;5.70;;;21.00;98.30;;;;;;5055103;23;20512;-81
2021/07/04 23:55:13;;;;;;;7.20;6.50;;;21.10;98.30;;;;;;5078438;23;20429;-81
